sensor_id;sensor_type;location;lat;lon;timestamp;P1;durP1;ratioP1;P2;durP2;ratioP2
74849;SDS011;63397;47.480;19.238;2023-07-08T00:01:45;5.60;;;2.75;;
74849;SDS011;63397;47.480;19.238;2023-07-08T00:04:47;5.73;;;2.60;;
74849;SDS011;63397;47.480;19.238;2023-07-08T00:07:49;6.07;;;2.72;;
74849;SDS011;63397;47.480;19.238;2023-07-08T00:10:52;7.05;;;2.65;;
74849;SDS011;63397;47.480;19.238;2023-07-08T00:13:54;6.88;;;2.80;;
74849;SDS011;63397;47.480;19.238;2023-07-08T00:16:57;6.68;;;3.00;;
74849;SDS011;63397;47.480;19.238;2023-07-08T00:19:59;5.70;;;2.80;;
74849;SDS011;63397;47.480;19.238;2023-07-08T00:23:01;7.10;;;3.20;;
74849;SDS011;63397;47.480;19.238;2023-07-08T00:26:08;6.47;;;2.83;;
74849;SDS011;63397;47.480;19.238;2023-07-08T00:29:11;5.57;;;3.05;;
74849;SDS011;63397;47.480;19.238;2023-07-08T00:32:14;6.53;;;3.10;;
74849;SDS011;63397;47.480;19.238;2023-07-08T00:35:17;6.37;;;3.07;;
74849;SDS011;63397;47.480;19.238;2023-07-08T00:41:22;6.68;;;2.97;;
74849;SDS011;63397;47.480;19.238;2023-07-08T00:44:26;5.57;;;2.78;;
74849;SDS011;63397;47.480;19.238;2023-07-08T00:47:28;7.97;;;3.13;;
74849;SDS011;63397;47.480;19.238;2023-07-08T00:50:30;6.60;;;3.23;;
74849;SDS011;63397;47.480;19.238;2023-07-08T00:53:35;6.35;;;2.80;;
74849;SDS011;63397;47.480;19.238;2023-07-08T00:59:47;6.00;;;2.92;;
74849;SDS011;63397;47.480;19.238;2023-07-08T01:02:52;7.15;;;2.95;;
74849;SDS011;63397;47.480;19.238;2023-07-08T01:05:58;7.17;;;3.27;;
74849;SDS011;63397;47.480;19.238;2023-07-08T01:09:04;7.45;;;3.00;;
74849;SDS011;63397;47.480;19.238;2023-07-08T01:12:11;5.55;;;2.95;;
74849;SDS011;63397;47.480;19.238;2023-07-08T01:15:14;6.90;;;3.42;;
74849;SDS011;63397;47.480;19.238;2023-07-08T01:18:17;7.32;;;3.33;;
74849;SDS011;63397;47.480;19.238;2023-07-08T01:22:06;6.83;;;3.27;;
74849;SDS011;63397;47.480;19.238;2023-07-08T01:24:48;6.30;;;3.08;;
74849;SDS011;63397;47.480;19.238;2023-07-08T01:27:52;8.95;;;3.15;;
74849;SDS011;63397;47.480;19.238;2023-07-08T01:30:55;6.35;;;3.40;;
74849;SDS011;63397;47.480;19.238;2023-07-08T01:33:58;13.25;;;3.83;;
74849;SDS011;63397;47.480;19.238;2023-07-08T01:37:01;7.70;;;3.07;;
74849;SDS011;63397;47.480;19.238;2023-07-08T01:40:15;6.05;;;3.05;;
74849;SDS011;63397;47.480;19.238;2023-07-08T01:43:17;9.02;;;3.25;;
74849;SDS011;63397;47.480;19.238;2023-07-08T01:46:22;6.75;;;2.92;;
74849;SDS011;63397;47.480;19.238;2023-07-08T01:49:25;6.70;;;3.45;;
74849;SDS011;63397;47.480;19.238;2023-07-08T01:52:27;7.00;;;2.90;;
74849;SDS011;63397;47.480;19.238;2023-07-08T01:55:29;6.18;;;3.00;;
74849;SDS011;63397;47.480;19.238;2023-07-08T01:58:33;8.27;;;3.15;;
74849;SDS011;63397;47.480;19.238;2023-07-08T02:01:35;6.68;;;3.35;;
74849;SDS011;63397;47.480;19.238;2023-07-08T02:04:38;8.50;;;3.22;;
74849;SDS011;63397;47.480;19.238;2023-07-08T02:07:40;6.23;;;3.50;;
74849;SDS011;63397;47.480;19.238;2023-07-08T02:10:43;6.72;;;3.30;;
74849;SDS011;63397;47.480;19.238;2023-07-08T02:13:45;6.40;;;3.17;;
74849;SDS011;63397;47.480;19.238;2023-07-08T02:16:48;7.60;;;3.22;;
74849;SDS011;63397;47.480;19.238;2023-07-08T02:19:50;5.63;;;2.97;;
74849;SDS011;63397;47.480;19.238;2023-07-08T02:22:53;6.47;;;3.30;;
74849;SDS011;63397;47.480;19.238;2023-07-08T02:25:55;6.22;;;3.33;;
74849;SDS011;63397;47.480;19.238;2023-07-08T02:28:58;9.80;;;3.50;;
74849;SDS011;63397;47.480;19.238;2023-07-08T02:32:01;7.55;;;3.25;;
74849;SDS011;63397;47.480;19.238;2023-07-08T02:35:03;6.63;;;3.20;;
74849;SDS011;63397;47.480;19.238;2023-07-08T02:38:05;6.13;;;3.27;;
74849;SDS011;63397;47.480;19.238;2023-07-08T02:41:08;8.40;;;3.30;;
74849;SDS011;63397;47.480;19.238;2023-07-08T02:44:10;6.57;;;3.38;;
74849;SDS011;63397;47.480;19.238;2023-07-08T02:47:12;7.03;;;3.47;;
74849;SDS011;63397;47.480;19.238;2023-07-08T02:50:14;6.50;;;3.67;;
74849;SDS011;63397;47.480;19.238;2023-07-08T02:53:19;8.17;;;3.37;;
74849;SDS011;63397;47.480;19.238;2023-07-08T02:56:21;6.80;;;3.33;;
74849;SDS011;63397;47.480;19.238;2023-07-08T02:59:24;8.55;;;3.50;;
74849;SDS011;63397;47.480;19.238;2023-07-08T03:02:27;8.13;;;3.92;;
74849;SDS011;63397;47.480;19.238;2023-07-08T03:05:29;6.53;;;3.40;;
74849;SDS011;63397;47.480;19.238;2023-07-08T03:08:32;8.23;;;3.43;;
74849;SDS011;63397;47.480;19.238;2023-07-08T03:11:35;6.82;;;3.70;;
74849;SDS011;63397;47.480;19.238;2023-07-08T03:14:38;9.98;;;3.92;;
74849;SDS011;63397;47.480;19.238;2023-07-08T03:17:41;8.45;;;3.75;;
74849;SDS011;63397;47.480;19.238;2023-07-08T03:20:44;7.53;;;3.30;;
74849;SDS011;63397;47.480;19.238;2023-07-08T03:23:50;6.27;;;3.43;;
74849;SDS011;63397;47.480;19.238;2023-07-08T03:26:53;6.95;;;3.40;;
74849;SDS011;63397;47.480;19.238;2023-07-08T03:29:59;7.72;;;3.70;;
74849;SDS011;63397;47.480;19.238;2023-07-08T03:33:01;8.68;;;3.55;;
74849;SDS011;63397;47.480;19.238;2023-07-08T03:36:04;9.00;;;4.07;;
74849;SDS011;63397;47.480;19.238;2023-07-08T03:39:07;9.47;;;4.00;;
74849;SDS011;63397;47.480;19.238;2023-07-08T03:42:09;6.38;;;3.83;;
74849;SDS011;63397;47.480;19.238;2023-07-08T03:45:11;8.57;;;4.03;;
74849;SDS011;63397;47.480;19.238;2023-07-08T03:48:14;8.20;;;3.97;;
74849;SDS011;63397;47.480;19.238;2023-07-08T03:51:29;8.32;;;3.67;;
74849;SDS011;63397;47.480;19.238;2023-07-08T03:54:32;7.00;;;3.67;;
74849;SDS011;63397;47.480;19.238;2023-07-08T03:57:34;7.72;;;3.70;;
74849;SDS011;63397;47.480;19.238;2023-07-08T04:00:37;7.63;;;3.83;;
74849;SDS011;63397;47.480;19.238;2023-07-08T04:03:39;9.40;;;4.63;;
74849;SDS011;63397;47.480;19.238;2023-07-08T04:06:42;8.70;;;4.55;;
74849;SDS011;63397;47.480;19.238;2023-07-08T04:09:45;7.83;;;3.67;;
74849;SDS011;63397;47.480;19.238;2023-07-08T04:12:52;7.25;;;4.00;;
74849;SDS011;63397;47.480;19.238;2023-07-08T04:15:55;6.88;;;3.95;;
74849;SDS011;63397;47.480;19.238;2023-07-08T04:18:58;8.25;;;3.97;;
74849;SDS011;63397;47.480;19.238;2023-07-08T04:22:00;8.00;;;4.25;;
74849;SDS011;63397;47.480;19.238;2023-07-08T04:25:03;7.40;;;4.10;;
74849;SDS011;63397;47.480;19.238;2023-07-08T04:28:06;7.72;;;4.00;;
74849;SDS011;63397;47.480;19.238;2023-07-08T04:31:08;6.07;;;3.67;;
74849;SDS011;63397;47.480;19.238;2023-07-08T04:34:10;8.43;;;3.97;;
74849;SDS011;63397;47.480;19.238;2023-07-08T04:37:13;7.78;;;4.57;;
74849;SDS011;63397;47.480;19.238;2023-07-08T04:40:16;8.23;;;4.00;;
74849;SDS011;63397;47.480;19.238;2023-07-08T04:43:21;7.97;;;3.67;;
74849;SDS011;63397;47.480;19.238;2023-07-08T04:46:31;7.28;;;3.75;;
74849;SDS011;63397;47.480;19.238;2023-07-08T04:49:37;7.30;;;4.03;;
74849;SDS011;63397;47.480;19.238;2023-07-08T04:52:39;8.02;;;4.32;;
74849;SDS011;63397;47.480;19.238;2023-07-08T04:55:42;7.63;;;4.30;;
74849;SDS011;63397;47.480;19.238;2023-07-08T04:58:45;7.82;;;3.70;;
74849;SDS011;63397;47.480;19.238;2023-07-08T05:01:48;6.72;;;3.58;;
74849;SDS011;63397;47.480;19.238;2023-07-08T05:04:51;7.88;;;3.30;;
74849;SDS011;63397;47.480;19.238;2023-07-08T05:07:53;7.63;;;3.55;;
74849;SDS011;63397;47.480;19.238;2023-07-08T05:10:56;7.10;;;3.13;;
74849;SDS011;63397;47.480;19.238;2023-07-08T05:13:58;5.80;;;3.13;;
74849;SDS011;63397;47.480;19.238;2023-07-08T05:17:01;7.70;;;3.42;;
74849;SDS011;63397;47.480;19.238;2023-07-08T05:20:03;8.75;;;3.65;;
74849;SDS011;63397;47.480;19.238;2023-07-08T05:23:06;5.72;;;3.42;;
74849;SDS011;63397;47.480;19.238;2023-07-08T05:26:08;7.63;;;3.43;;
74849;SDS011;63397;47.480;19.238;2023-07-08T05:29:10;6.45;;;3.38;;
74849;SDS011;63397;47.480;19.238;2023-07-08T05:32:13;6.78;;;3.33;;
74849;SDS011;63397;47.480;19.238;2023-07-08T05:35:15;5.60;;;3.28;;
74849;SDS011;63397;47.480;19.238;2023-07-08T05:38:17;6.00;;;3.05;;
74849;SDS011;63397;47.480;19.238;2023-07-08T05:41:20;6.20;;;3.20;;
74849;SDS011;63397;47.480;19.238;2023-07-08T05:44:22;5.30;;;2.95;;
74849;SDS011;63397;47.480;19.238;2023-07-08T05:47:24;5.30;;;3.20;;
74849;SDS011;63397;47.480;19.238;2023-07-08T05:50:27;5.80;;;3.10;;
74849;SDS011;63397;47.480;19.238;2023-07-08T05:53:30;7.38;;;3.08;;
74849;SDS011;63397;47.480;19.238;2023-07-08T05:56:32;6.93;;;3.37;;
74849;SDS011;63397;47.480;19.238;2023-07-08T05:59:34;6.13;;;3.10;;
74849;SDS011;63397;47.480;19.238;2023-07-08T06:02:37;7.45;;;3.53;;
74849;SDS011;63397;47.480;19.238;2023-07-08T06:05:40;5.28;;;3.20;;
74849;SDS011;63397;47.480;19.238;2023-07-08T06:08:43;7.13;;;3.28;;
74849;SDS011;63397;47.480;19.238;2023-07-08T06:11:45;7.00;;;3.07;;
74849;SDS011;63397;47.480;19.238;2023-07-08T06:14:47;6.82;;;3.33;;
74849;SDS011;63397;47.480;19.238;2023-07-08T06:17:50;6.82;;;3.33;;
74849;SDS011;63397;47.480;19.238;2023-07-08T06:20:55;7.05;;;3.13;;
74849;SDS011;63397;47.480;19.238;2023-07-08T06:23:59;5.28;;;3.10;;
74849;SDS011;63397;47.480;19.238;2023-07-08T06:27:01;6.80;;;3.30;;
74849;SDS011;63397;47.480;19.238;2023-07-08T06:30:04;6.63;;;3.35;;
74849;SDS011;63397;47.480;19.238;2023-07-08T06:33:06;5.75;;;2.88;;
74849;SDS011;63397;47.480;19.238;2023-07-08T06:36:09;4.50;;;2.90;;
74849;SDS011;63397;47.480;19.238;2023-07-08T06:39:11;5.78;;;3.28;;
74849;SDS011;63397;47.480;19.238;2023-07-08T06:42:13;5.73;;;3.30;;
74849;SDS011;63397;47.480;19.238;2023-07-08T06:45:22;5.45;;;3.03;;
74849;SDS011;63397;47.480;19.238;2023-07-08T06:48:25;6.22;;;3.00;;
74849;SDS011;63397;47.480;19.238;2023-07-08T06:51:27;5.13;;;3.20;;
74849;SDS011;63397;47.480;19.238;2023-07-08T06:54:30;5.90;;;2.97;;
74849;SDS011;63397;47.480;19.238;2023-07-08T06:57:32;4.87;;;2.70;;
74849;SDS011;63397;47.480;19.238;2023-07-08T07:00:34;5.22;;;2.75;;
74849;SDS011;63397;47.480;19.238;2023-07-08T07:03:37;5.85;;;3.00;;
74849;SDS011;63397;47.480;19.238;2023-07-08T07:06:39;4.90;;;2.85;;
74849;SDS011;63397;47.480;19.238;2023-07-08T07:09:42;4.13;;;2.60;;
74849;SDS011;63397;47.480;19.238;2023-07-08T07:12:44;4.00;;;2.60;;
74849;SDS011;63397;47.480;19.238;2023-07-08T07:15:49;4.68;;;2.67;;
74849;SDS011;63397;47.480;19.238;2023-07-08T07:18:53;4.18;;;3.03;;
74849;SDS011;63397;47.480;19.238;2023-07-08T07:21:56;4.95;;;2.58;;
74849;SDS011;63397;47.480;19.238;2023-07-08T07:24:58;6.32;;;3.15;;
74849;SDS011;63397;47.480;19.238;2023-07-08T07:28:01;5.33;;;2.70;;
74849;SDS011;63397;47.480;19.238;2023-07-08T07:31:03;4.05;;;2.72;;
74849;SDS011;63397;47.480;19.238;2023-07-08T07:34:07;5.13;;;2.95;;
74849;SDS011;63397;47.480;19.238;2023-07-08T07:37:11;5.70;;;2.80;;
74849;SDS011;63397;47.480;19.238;2023-07-08T07:40:14;5.25;;;2.90;;
74849;SDS011;63397;47.480;19.238;2023-07-08T07:43:17;6.20;;;3.00;;
74849;SDS011;63397;47.480;19.238;2023-07-08T07:46:20;4.47;;;2.65;;
74849;SDS011;63397;47.480;19.238;2023-07-08T07:49:22;4.90;;;2.70;;
74849;SDS011;63397;47.480;19.238;2023-07-08T07:52:24;5.13;;;2.60;;
74849;SDS011;63397;47.480;19.238;2023-07-08T07:55:27;4.72;;;2.83;;
74849;SDS011;63397;47.480;19.238;2023-07-08T07:58:29;4.90;;;2.50;;
74849;SDS011;63397;47.480;19.238;2023-07-08T08:01:32;6.90;;;2.45;;
74849;SDS011;63397;47.480;19.238;2023-07-08T08:04:35;5.78;;;3.00;;
74849;SDS011;63397;47.480;19.238;2023-07-08T08:07:37;5.43;;;2.92;;
74849;SDS011;63397;47.480;19.238;2023-07-08T08:10:40;6.57;;;2.83;;
74849;SDS011;63397;47.480;19.238;2023-07-08T08:13:42;5.50;;;2.57;;
74849;SDS011;63397;47.480;19.238;2023-07-08T08:16:44;4.65;;;2.50;;
74849;SDS011;63397;47.480;19.238;2023-07-08T08:19:47;3.80;;;2.40;;
74849;SDS011;63397;47.480;19.238;2023-07-08T08:22:49;5.07;;;2.58;;
74849;SDS011;63397;47.480;19.238;2023-07-08T08:25:52;4.97;;;2.50;;
74849;SDS011;63397;47.480;19.238;2023-07-08T08:28:55;4.30;;;2.30;;
74849;SDS011;63397;47.480;19.238;2023-07-08T08:31:57;4.72;;;2.47;;
74849;SDS011;63397;47.480;19.238;2023-07-08T08:34:59;4.63;;;2.58;;
74849;SDS011;63397;47.480;19.238;2023-07-08T08:38:04;5.15;;;2.67;;
74849;SDS011;63397;47.480;19.238;2023-07-08T08:41:14;4.00;;;2.45;;
74849;SDS011;63397;47.480;19.238;2023-07-08T08:44:17;5.07;;;2.47;;
74849;SDS011;63397;47.480;19.238;2023-07-08T08:50:32;5.97;;;2.70;;
74849;SDS011;63397;47.480;19.238;2023-07-08T08:53:34;5.95;;;2.63;;
74849;SDS011;63397;47.480;19.238;2023-07-08T08:56:44;4.32;;;2.65;;
74849;SDS011;63397;47.480;19.238;2023-07-08T08:59:53;5.27;;;2.70;;
74849;SDS011;63397;47.480;19.238;2023-07-08T09:03:01;6.50;;;2.90;;
74849;SDS011;63397;47.480;19.238;2023-07-08T09:06:09;4.57;;;2.40;;
74849;SDS011;63397;47.480;19.238;2023-07-08T09:09:15;4.85;;;2.78;;
74849;SDS011;63397;47.480;19.238;2023-07-08T09:12:24;5.10;;;2.63;;
74849;SDS011;63397;47.480;19.238;2023-07-08T09:15:27;4.63;;;2.63;;
74849;SDS011;63397;47.480;19.238;2023-07-08T09:18:35;4.63;;;2.33;;
74849;SDS011;63397;47.480;19.238;2023-07-08T09:27:52;4.47;;;2.75;;
74849;SDS011;63397;47.480;19.238;2023-07-08T09:30:55;5.60;;;2.70;;
74849;SDS011;63397;47.480;19.238;2023-07-08T09:34:16;5.20;;;3.10;;
74849;SDS011;63397;47.480;19.238;2023-07-08T09:40:29;4.88;;;2.63;;
74849;SDS011;63397;47.480;19.238;2023-07-08T09:43:37;4.20;;;2.53;;
74849;SDS011;63397;47.480;19.238;2023-07-08T09:46:40;5.00;;;2.97;;
74849;SDS011;63397;47.480;19.238;2023-07-08T09:49:42;5.78;;;2.90;;
74849;SDS011;63397;47.480;19.238;2023-07-08T09:52:47;4.80;;;2.88;;
74849;SDS011;63397;47.480;19.238;2023-07-08T09:55:50;6.20;;;3.15;;
74849;SDS011;63397;47.480;19.238;2023-07-08T09:58:52;5.43;;;3.13;;
74849;SDS011;63397;47.480;19.238;2023-07-08T10:01:55;5.43;;;2.83;;
74849;SDS011;63397;47.480;19.238;2023-07-08T10:05:00;4.88;;;2.78;;
74849;SDS011;63397;47.480;19.238;2023-07-08T10:08:07;5.55;;;3.20;;
74849;SDS011;63397;47.480;19.238;2023-07-08T10:17:24;5.10;;;2.83;;
74849;SDS011;63397;47.480;19.238;2023-07-08T10:20:29;4.57;;;3.00;;
74849;SDS011;63397;47.480;19.238;2023-07-08T10:24:22;5.05;;;2.97;;
74849;SDS011;63397;47.480;19.238;2023-07-08T10:30:25;4.65;;;3.05;;
74849;SDS011;63397;47.480;19.238;2023-07-08T10:36:43;4.45;;;2.80;;
74849;SDS011;63397;47.480;19.238;2023-07-08T10:46:24;4.13;;;2.70;;
74849;SDS011;63397;47.480;19.238;2023-07-08T10:49:31;4.65;;;2.70;;
74849;SDS011;63397;47.480;19.238;2023-07-08T10:55:46;4.25;;;2.60;;
74849;SDS011;63397;47.480;19.238;2023-07-08T10:59:03;4.80;;;2.83;;
74849;SDS011;63397;47.480;19.238;2023-07-08T11:05:23;4.50;;;2.60;;
74849;SDS011;63397;47.480;19.238;2023-07-08T11:08:29;4.90;;;2.90;;
74849;SDS011;63397;47.480;19.238;2023-07-08T11:11:43;4.75;;;2.67;;
74849;SDS011;63397;47.480;19.238;2023-07-08T11:14:56;4.40;;;2.83;;
74849;SDS011;63397;47.480;19.238;2023-07-08T11:21:13;5.22;;;2.97;;
74849;SDS011;63397;47.480;19.238;2023-07-08T11:24:21;5.68;;;2.75;;
74849;SDS011;63397;47.480;19.238;2023-07-08T11:30:29;4.40;;;2.72;;
74849;SDS011;63397;47.480;19.238;2023-07-08T11:33:32;4.20;;;2.67;;
74849;SDS011;63397;47.480;19.238;2023-07-08T11:36:37;5.50;;;3.05;;
74849;SDS011;63397;47.480;19.238;2023-07-08T11:39:43;5.10;;;2.97;;
74849;SDS011;63397;47.480;19.238;2023-07-08T11:42:50;4.50;;;2.70;;
74849;SDS011;63397;47.480;19.238;2023-07-08T11:46:03;4.82;;;2.85;;
74849;SDS011;63397;47.480;19.238;2023-07-08T11:49:11;4.90;;;2.77;;
74849;SDS011;63397;47.480;19.238;2023-07-08T11:52:18;4.28;;;2.65;;
74849;SDS011;63397;47.480;19.238;2023-07-08T11:55:23;4.53;;;2.50;;
74849;SDS011;63397;47.480;19.238;2023-07-08T11:58:32;4.47;;;2.58;;
74849;SDS011;63397;47.480;19.238;2023-07-08T12:02:05;4.63;;;2.92;;
74849;SDS011;63397;47.480;19.238;2023-07-08T12:05:13;4.23;;;2.80;;
74849;SDS011;63397;47.480;19.238;2023-07-08T12:08:17;4.05;;;2.75;;
74849;SDS011;63397;47.480;19.238;2023-07-08T12:11:24;4.75;;;2.80;;
74849;SDS011;63397;47.480;19.238;2023-07-08T12:14:28;6.35;;;2.72;;
74849;SDS011;63397;47.480;19.238;2023-07-08T12:17:31;5.40;;;2.63;;
74849;SDS011;63397;47.480;19.238;2023-07-08T12:20:34;4.70;;;2.70;;
74849;SDS011;63397;47.480;19.238;2023-07-08T12:23:37;5.45;;;2.60;;
74849;SDS011;63397;47.480;19.238;2023-07-08T12:26:39;4.28;;;2.88;;
74849;SDS011;63397;47.480;19.238;2023-07-08T12:29:42;4.70;;;3.10;;
74849;SDS011;63397;47.480;19.238;2023-07-08T12:32:44;6.03;;;2.60;;
74849;SDS011;63397;47.480;19.238;2023-07-08T12:35:48;5.30;;;2.57;;
74849;SDS011;63397;47.480;19.238;2023-07-08T12:38:51;5.60;;;3.00;;
74849;SDS011;63397;47.480;19.238;2023-07-08T12:41:54;4.80;;;2.88;;
74849;SDS011;63397;47.480;19.238;2023-07-08T12:44:58;4.38;;;2.60;;
74849;SDS011;63397;47.480;19.238;2023-07-08T12:48:01;5.65;;;2.80;;
74849;SDS011;63397;47.480;19.238;2023-07-08T12:51:03;4.03;;;2.50;;
74849;SDS011;63397;47.480;19.238;2023-07-08T12:54:08;4.95;;;2.67;;
74849;SDS011;63397;47.480;19.238;2023-07-08T12:57:11;4.95;;;3.10;;
74849;SDS011;63397;47.480;19.238;2023-07-08T13:00:27;4.97;;;2.65;;
74849;SDS011;63397;47.480;19.238;2023-07-08T13:03:30;4.65;;;2.72;;
74849;SDS011;63397;47.480;19.238;2023-07-08T13:06:35;4.60;;;2.50;;
74849;SDS011;63397;47.480;19.238;2023-07-08T13:09:45;4.90;;;2.60;;
74849;SDS011;63397;47.480;19.238;2023-07-08T13:12:48;4.78;;;2.75;;
74849;SDS011;63397;47.480;19.238;2023-07-08T13:15:52;4.80;;;2.67;;
74849;SDS011;63397;47.480;19.238;2023-07-08T13:18:55;4.00;;;2.85;;
74849;SDS011;63397;47.480;19.238;2023-07-08T13:21:57;4.57;;;2.57;;
74849;SDS011;63397;47.480;19.238;2023-07-08T13:25:02;4.93;;;2.60;;
74849;SDS011;63397;47.480;19.238;2023-07-08T13:28:15;3.88;;;2.55;;
74849;SDS011;63397;47.480;19.238;2023-07-08T13:34:25;4.93;;;2.83;;
74849;SDS011;63397;47.480;19.238;2023-07-08T13:37:29;4.33;;;2.63;;
74849;SDS011;63397;47.480;19.238;2023-07-08T13:40:32;4.60;;;2.60;;
74849;SDS011;63397;47.480;19.238;2023-07-08T13:43:35;6.00;;;2.75;;
74849;SDS011;63397;47.480;19.238;2023-07-08T13:49:44;5.85;;;2.33;;
74849;SDS011;63397;47.480;19.238;2023-07-08T13:52:47;5.53;;;2.83;;
74849;SDS011;63397;47.480;19.238;2023-07-08T13:55:59;4.60;;;2.88;;
74849;SDS011;63397;47.480;19.238;2023-07-08T13:59:06;5.35;;;2.90;;
74849;SDS011;63397;47.480;19.238;2023-07-08T14:02:19;4.20;;;2.50;;
74849;SDS011;63397;47.480;19.238;2023-07-08T14:05:23;5.32;;;2.65;;
74849;SDS011;63397;47.480;19.238;2023-07-08T14:08:26;8.23;;;2.83;;
74849;SDS011;63397;47.480;19.238;2023-07-08T14:11:28;4.82;;;2.53;;
74849;SDS011;63397;47.480;19.238;2023-07-08T14:14:31;4.40;;;2.85;;
74849;SDS011;63397;47.480;19.238;2023-07-08T14:17:33;4.50;;;2.65;;
74849;SDS011;63397;47.480;19.238;2023-07-08T14:20:35;4.97;;;2.80;;
74849;SDS011;63397;47.480;19.238;2023-07-08T14:23:38;5.17;;;3.17;;
74849;SDS011;63397;47.480;19.238;2023-07-08T14:26:43;5.80;;;2.70;;
74849;SDS011;63397;47.480;19.238;2023-07-08T14:29:47;5.10;;;2.70;;
74849;SDS011;63397;47.480;19.238;2023-07-08T14:32:49;3.95;;;2.35;;
74849;SDS011;63397;47.480;19.238;2023-07-08T14:35:51;4.05;;;2.47;;
74849;SDS011;63397;47.480;19.238;2023-07-08T14:38:54;4.33;;;2.90;;
74849;SDS011;63397;47.480;19.238;2023-07-08T14:41:56;5.10;;;3.05;;
74849;SDS011;63397;47.480;19.238;2023-07-08T14:44:58;5.72;;;2.90;;
74849;SDS011;63397;47.480;19.238;2023-07-08T14:48:01;4.15;;;2.40;;
74849;SDS011;63397;47.480;19.238;2023-07-08T14:51:03;5.65;;;2.90;;
74849;SDS011;63397;47.480;19.238;2023-07-08T14:54:05;4.50;;;2.53;;
74849;SDS011;63397;47.480;19.238;2023-07-08T14:57:09;4.57;;;2.58;;
74849;SDS011;63397;47.480;19.238;2023-07-08T15:00:16;4.68;;;2.63;;
74849;SDS011;63397;47.480;19.238;2023-07-08T15:03:19;5.43;;;3.25;;
74849;SDS011;63397;47.480;19.238;2023-07-08T15:06:22;5.43;;;2.90;;
74849;SDS011;63397;47.480;19.238;2023-07-08T15:09:24;6.07;;;2.70;;
74849;SDS011;63397;47.480;19.238;2023-07-08T15:12:27;4.97;;;2.92;;
74849;SDS011;63397;47.480;19.238;2023-07-08T15:15:31;5.30;;;2.95;;
74849;SDS011;63397;47.480;19.238;2023-07-08T15:18:34;4.28;;;2.90;;
74849;SDS011;63397;47.480;19.238;2023-07-08T15:21:37;4.50;;;3.20;;
74849;SDS011;63397;47.480;19.238;2023-07-08T15:24:40;5.37;;;2.53;;
74849;SDS011;63397;47.480;19.238;2023-07-08T15:27:47;4.30;;;2.92;;
74849;SDS011;63397;47.480;19.238;2023-07-08T15:30:50;4.47;;;2.83;;
74849;SDS011;63397;47.480;19.238;2023-07-08T15:33:54;5.22;;;2.70;;
74849;SDS011;63397;47.480;19.238;2023-07-08T15:36:56;3.75;;;2.65;;
74849;SDS011;63397;47.480;19.238;2023-07-08T15:39:58;4.87;;;2.67;;
74849;SDS011;63397;47.480;19.238;2023-07-08T15:43:01;5.28;;;2.70;;
74849;SDS011;63397;47.480;19.238;2023-07-08T15:46:04;4.07;;;2.72;;
74849;SDS011;63397;47.480;19.238;2023-07-08T15:49:13;4.38;;;2.88;;
74849;SDS011;63397;47.480;19.238;2023-07-08T15:52:17;4.78;;;2.60;;
74849;SDS011;63397;47.480;19.238;2023-07-08T15:55:26;6.07;;;2.93;;
74849;SDS011;63397;47.480;19.238;2023-07-08T15:58:31;4.80;;;3.00;;
74849;SDS011;63397;47.480;19.238;2023-07-08T16:01:34;4.53;;;2.88;;
74849;SDS011;63397;47.480;19.238;2023-07-08T16:04:36;3.72;;;2.45;;
74849;SDS011;63397;47.480;19.238;2023-07-08T16:07:39;5.15;;;2.80;;
74849;SDS011;63397;47.480;19.238;2023-07-08T16:10:41;6.33;;;3.00;;
74849;SDS011;63397;47.480;19.238;2023-07-08T16:13:45;5.18;;;2.83;;
74849;SDS011;63397;47.480;19.238;2023-07-08T16:16:48;5.45;;;2.70;;
74849;SDS011;63397;47.480;19.238;2023-07-08T16:19:51;5.07;;;3.38;;
74849;SDS011;63397;47.480;19.238;2023-07-08T16:22:53;4.20;;;2.55;;
74849;SDS011;63397;47.480;19.238;2023-07-08T16:25:55;4.67;;;2.70;;
74849;SDS011;63397;47.480;19.238;2023-07-08T16:28:59;4.35;;;2.75;;
74849;SDS011;63397;47.480;19.238;2023-07-08T16:32:01;5.20;;;2.60;;
74849;SDS011;63397;47.480;19.238;2023-07-08T16:35:03;4.25;;;2.50;;
74849;SDS011;63397;47.480;19.238;2023-07-08T16:38:07;4.80;;;2.88;;
74849;SDS011;63397;47.480;19.238;2023-07-08T16:41:13;4.30;;;2.50;;
74849;SDS011;63397;47.480;19.238;2023-07-08T16:44:16;5.20;;;2.72;;
74849;SDS011;63397;47.480;19.238;2023-07-08T16:47:19;5.63;;;3.03;;
74849;SDS011;63397;47.480;19.238;2023-07-08T16:50:24;4.57;;;2.50;;
74849;SDS011;63397;47.480;19.238;2023-07-08T16:53:27;4.93;;;2.88;;
74849;SDS011;63397;47.480;19.238;2023-07-08T16:56:30;5.80;;;3.23;;
74849;SDS011;63397;47.480;19.238;2023-07-08T16:59:32;5.60;;;2.88;;
74849;SDS011;63397;47.480;19.238;2023-07-08T17:02:34;4.70;;;3.20;;
74849;SDS011;63397;47.480;19.238;2023-07-08T17:05:38;4.60;;;2.70;;
74849;SDS011;63397;47.480;19.238;2023-07-08T17:08:40;5.70;;;3.20;;
74849;SDS011;63397;47.480;19.238;2023-07-08T17:11:42;5.60;;;2.70;;
74849;SDS011;63397;47.480;19.238;2023-07-08T17:14:45;5.32;;;2.90;;
74849;SDS011;63397;47.480;19.238;2023-07-08T17:17:50;5.07;;;2.90;;
74849;SDS011;63397;47.480;19.238;2023-07-08T17:20:54;4.07;;;2.60;;
74849;SDS011;63397;47.480;19.238;2023-07-08T17:23:57;5.55;;;2.60;;
74849;SDS011;63397;47.480;19.238;2023-07-08T17:26:59;4.10;;;2.50;;
74849;SDS011;63397;47.480;19.238;2023-07-08T17:30:01;5.55;;;2.78;;
74849;SDS011;63397;47.480;19.238;2023-07-08T17:33:04;4.45;;;2.40;;
74849;SDS011;63397;47.480;19.238;2023-07-08T17:36:12;4.35;;;2.40;;
74849;SDS011;63397;47.480;19.238;2023-07-08T17:39:15;4.75;;;2.55;;
74849;SDS011;63397;47.480;19.238;2023-07-08T17:42:17;5.47;;;2.57;;
74849;SDS011;63397;47.480;19.238;2023-07-08T17:45:29;4.57;;;2.40;;
74849;SDS011;63397;47.480;19.238;2023-07-08T17:48:34;5.45;;;2.58;;
74849;SDS011;63397;47.480;19.238;2023-07-08T17:51:37;5.40;;;2.40;;
74849;SDS011;63397;47.480;19.238;2023-07-08T17:54:41;3.97;;;2.33;;
74849;SDS011;63397;47.480;19.238;2023-07-08T17:57:43;4.30;;;2.40;;
74849;SDS011;63397;47.480;19.238;2023-07-08T18:00:48;5.55;;;2.65;;
74849;SDS011;63397;47.480;19.238;2023-07-08T18:03:53;4.78;;;2.65;;
74849;SDS011;63397;47.480;19.238;2023-07-08T18:06:55;4.05;;;2.25;;
74849;SDS011;63397;47.480;19.238;2023-07-08T18:09:58;4.63;;;2.70;;
74849;SDS011;63397;47.480;19.238;2023-07-08T18:13:00;5.90;;;2.60;;
74849;SDS011;63397;47.480;19.238;2023-07-08T18:16:10;4.47;;;2.50;;
74849;SDS011;63397;47.480;19.238;2023-07-08T18:19:13;4.38;;;2.63;;
74849;SDS011;63397;47.480;19.238;2023-07-08T18:22:16;6.10;;;2.75;;
74849;SDS011;63397;47.480;19.238;2023-07-08T18:25:19;4.90;;;2.70;;
74849;SDS011;63397;47.480;19.238;2023-07-08T18:28:22;3.77;;;2.30;;
74849;SDS011;63397;47.480;19.238;2023-07-08T18:31:28;4.88;;;2.80;;
74849;SDS011;63397;47.480;19.238;2023-07-08T18:34:32;6.47;;;3.28;;
74849;SDS011;63397;47.480;19.238;2023-07-08T18:37:34;6.43;;;3.20;;
74849;SDS011;63397;47.480;19.238;2023-07-08T18:40:37;5.90;;;3.42;;
74849;SDS011;63397;47.480;19.238;2023-07-08T18:43:41;6.07;;;3.00;;
74849;SDS011;63397;47.480;19.238;2023-07-08T18:46:44;5.53;;;3.25;;
74849;SDS011;63397;47.480;19.238;2023-07-08T18:49:46;6.70;;;3.80;;
74849;SDS011;63397;47.480;19.238;2023-07-08T18:52:49;7.45;;;3.70;;
74849;SDS011;63397;47.480;19.238;2023-07-08T18:55:51;6.75;;;3.95;;
74849;SDS011;63397;47.480;19.238;2023-07-08T18:58:53;6.60;;;3.30;;
74849;SDS011;63397;47.480;19.238;2023-07-08T19:01:56;6.68;;;3.50;;
74849;SDS011;63397;47.480;19.238;2023-07-08T19:04:58;6.78;;;3.70;;
74849;SDS011;63397;47.480;19.238;2023-07-08T19:08:00;5.80;;;3.33;;